createdAt,value
2023-06-08T00:00:08.247Z,70.80
2023-06-08T00:01:03.527Z,70.70
2023-06-08T00:01:44.290Z,70.74
2023-06-08T00:02:25.771Z,70.84
2023-06-08T00:03:12.179Z,70.64
2023-06-08T00:03:46.184Z,70.74
2023-06-08T00:04:38.131Z,71.10
2023-06-08T00:05:14.979Z,71.18
2023-06-08T00:06:07.064Z,71.32
2023-06-08T00:06:45.752Z,71.21
2023-06-08T00:07:29.079Z,71.65
2023-06-08T00:08:04.254Z,71.42
2023-06-08T00:08:51.071Z,71.27
2023-06-08T00:09:25.133Z,71.60
2023-06-08T00:10:14.124Z,71.22
2023-06-08T00:10:52.744Z,71.20
2023-06-08T00:11:41.035Z,71.14
2023-06-08T00:12:16.193Z,71.17
2023-06-08T00:12:57.080Z,71.30
2023-06-08T00:13:37.173Z,71.33
2023-06-08T00:14:18.152Z,71.14
2023-06-08T00:14:58.336Z,71.21
2023-06-08T00:15:41.038Z,71.30
2023-06-08T00:16:21.655Z,71.42
2023-06-08T00:17:03.128Z,71.40
2023-06-08T00:17:45.794Z,71.31
2023-06-08T00:18:27.139Z,71.46
2023-06-08T00:19:08.624Z,72.10
2023-06-08T00:19:53.034Z,71.42
2023-06-08T00:20:36.021Z,71.58
2023-06-08T00:21:20.042Z,71.67
2023-06-08T00:22:06.317Z,71.63
2023-06-08T00:22:47.042Z,71.79
2023-06-08T00:23:34.177Z,72.37
2023-06-08T00:24:30.212Z,71.71
2023-06-08T00:25:24.064Z,71.93
2023-06-08T00:26:18.038Z,71.67
2023-06-08T00:27:12.089Z,71.67
2023-06-08T00:28:06.050Z,71.69
2023-06-08T00:28:56.051Z,71.82
2023-06-08T00:29:30.178Z,72.33
2023-06-08T00:30:18.062Z,72.74
2023-06-08T00:30:52.149Z,72.74
2023-06-08T00:31:39.106Z,73.32
2023-06-08T00:32:13.207Z,73.61
2023-06-08T00:33:00.139Z,73.21
2023-06-08T00:33:35.916Z,73.23
2023-06-08T00:34:16.044Z,72.90
2023-06-08T00:34:56.115Z,73.19
2023-06-08T00:35:36.041Z,72.94
2023-06-08T00:36:16.173Z,73.15
2023-06-08T00:36:57.064Z,73.91
2023-06-08T00:37:38.099Z,73.87
2023-06-08T00:38:18.028Z,73.32
2023-06-08T00:38:58.101Z,73.34
2023-06-08T00:39:38.077Z,73.50
2023-06-08T00:40:19.106Z,73.19
2023-06-08T00:41:00.023Z,73.19
2023-06-08T00:41:40.130Z,73.25
2023-06-08T00:42:20.037Z,73.21
2023-06-08T00:43:00.171Z,73.34
2023-06-08T00:43:41.016Z,73.03
2023-06-08T00:44:21.246Z,73.06
2023-06-08T00:45:02.066Z,72.74
2023-06-08T00:45:43.185Z,73.36
2023-06-08T00:46:25.154Z,72.96
2023-06-08T00:47:05.092Z,72.85
2023-06-08T00:47:46.094Z,72.68
2023-06-08T00:48:28.964Z,72.33
2023-06-08T00:49:10.046Z,72.25
2023-06-08T00:49:50.080Z,72.36
2023-06-08T00:50:32.074Z,72.16
2023-06-08T00:51:12.096Z,72.61
2023-06-08T00:51:53.009Z,72.22
2023-06-08T00:52:34.269Z,72.30
2023-06-08T00:53:15.069Z,72.03
2023-06-08T00:53:57.551Z,72.25
2023-06-08T00:54:38.012Z,72.13
2023-06-08T00:55:21.000Z,71.83
2023-06-08T00:56:02.075Z,72.13
2023-06-08T00:56:42.377Z,71.92
2023-06-08T00:57:26.005Z,71.82
2023-06-08T00:58:12.664Z,71.83
2023-06-08T00:58:55.050Z,71.68
2023-06-08T00:59:38.087Z,71.92
2023-06-08T01:00:19.046Z,71.68
2023-06-08T01:01:11.221Z,71.85
2023-06-08T01:02:07.039Z,72.00
2023-06-08T01:03:01.040Z,71.74
2023-06-08T01:03:55.007Z,71.99
2023-06-08T01:04:49.048Z,72.18
2023-06-08T01:05:46.042Z,72.16
2023-06-08T01:06:36.047Z,72.53
2023-06-08T01:07:42.147Z,72.11
2023-06-08T01:08:50.269Z,72.66
2023-06-08T01:09:33.093Z,72.32
2023-06-08T01:10:33.075Z,72.89
2023-06-08T01:11:20.110Z,72.92
2023-06-08T01:12:10.025Z,73.13
2023-06-08T01:13:28.671Z,73.19
2023-06-08T01:14:37.008Z,72.65
2023-06-08T01:15:40.264Z,72.96
2023-06-08T01:16:24.044Z,72.50
2023-06-08T01:17:17.061Z,72.45
2023-06-08T01:18:16.118Z,73.06
2023-06-08T01:19:11.045Z,72.25
2023-06-08T01:20:40.037Z,72.32
2023-06-08T01:22:05.046Z,72.58
2023-06-08T01:23:28.039Z,73.13
2023-06-08T01:24:30.996Z,72.86
2023-06-08T01:25:26.020Z,72.62
2023-06-08T01:26:22.984Z,72.24
2023-06-08T01:27:19.014Z,71.97
2023-06-08T01:28:20.985Z,71.71
2023-06-08T01:29:03.049Z,72.32
2023-06-08T01:29:43.154Z,72.26
2023-06-08T01:30:23.012Z,72.52
2023-06-08T01:31:04.121Z,71.93
2023-06-08T01:31:45.177Z,71.85
2023-06-08T01:32:27.141Z,72.23
2023-06-08T01:33:07.046Z,71.83
2023-06-08T01:33:47.058Z,72.47
2023-06-08T01:34:28.025Z,71.81
2023-06-08T01:35:08.116Z,72.50
2023-06-08T01:35:48.979Z,71.89
2023-06-08T01:37:16.123Z,72.17
2023-06-08T01:38:03.983Z,72.31
2023-06-08T01:39:12.295Z,72.40
2023-06-08T01:40:41.044Z,72.40
2023-06-08T01:41:31.140Z,72.88
2023-06-08T01:42:12.964Z,72.77
2023-06-08T01:42:55.088Z,72.90
2023-06-08T01:43:36.049Z,73.13
2023-06-08T01:44:21.266Z,73.01
2023-06-08T01:45:10.975Z,73.18
2023-06-08T01:46:03.006Z,73.06
2023-06-08T01:47:06.003Z,73.48
2023-06-08T01:48:11.018Z,73.79
2023-06-08T01:49:07.996Z,73.98
2023-06-08T01:50:03.070Z,74.48
2023-06-08T01:50:58.005Z,74.08
2023-06-08T01:51:39.981Z,74.19
2023-06-08T01:52:21.646Z,73.74
2023-06-08T01:53:03.963Z,74.01
2023-06-08T01:53:44.137Z,74.24
2023-06-08T01:54:23.968Z,74.17
2023-06-08T01:55:05.280Z,73.99
2023-06-08T01:55:44.949Z,74.28
2023-06-08T01:56:25.080Z,74.48
2023-06-08T01:57:06.052Z,74.17
2023-06-08T01:57:47.074Z,74.43
2023-06-08T01:58:26.971Z,74.45
2023-06-08T01:59:08.084Z,74.50
2023-06-08T01:59:47.974Z,74.12
2023-06-08T02:00:28.221Z,74.16
2023-06-08T02:01:09.018Z,74.11
2023-06-08T02:01:49.164Z,74.31
2023-06-08T02:02:53.103Z,74.30
2023-06-08T02:03:46.962Z,74.33
2023-06-08T02:04:41.010Z,74.76
2023-06-08T02:05:34.998Z,74.27
2023-06-08T02:06:28.973Z,74.38
2023-06-08T02:07:22.978Z,73.94
2023-06-08T02:08:09.951Z,74.10
2023-06-08T02:08:44.052Z,73.94
2023-06-08T02:09:30.941Z,74.19
2023-06-08T02:10:05.513Z,73.93
2023-06-08T02:10:52.964Z,74.19
2023-06-08T02:11:27.279Z,74.26
2023-06-08T02:12:15.970Z,74.11
2023-06-08T02:12:50.043Z,74.66
2023-06-08T02:13:30.965Z,74.54
2023-06-08T02:14:24.951Z,75.17
2023-06-08T02:15:19.948Z,75.07
2023-06-08T02:16:14.062Z,75.38
2023-06-08T02:17:08.007Z,75.88
2023-06-08T02:18:06.059Z,75.88
2023-06-08T02:18:53.964Z,75.49
2023-06-08T02:19:28.052Z,75.42
2023-06-08T02:20:15.957Z,75.85
2023-06-08T02:20:50.011Z,75.53
2023-06-08T02:21:37.979Z,75.67
2023-06-08T02:22:12.071Z,76.01
2023-06-08T02:22:59.986Z,75.84
2023-06-08T02:23:34.168Z,75.83
2023-06-08T02:24:14.059Z,75.83
2023-06-08T02:24:55.087Z,75.75
2023-06-08T02:25:35.956Z,75.57
2023-06-08T02:26:17.868Z,76.03
2023-06-08T02:27:01.959Z,75.46
2023-06-08T02:27:44.933Z,75.54
2023-06-08T02:28:24.951Z,75.62
2023-06-08T02:29:05.041Z,75.50
2023-06-08T02:29:46.967Z,75.43
2023-06-08T02:30:27.233Z,75.26
2023-06-08T02:31:07.968Z,75.48
2023-06-08T02:31:48.048Z,75.68
2023-06-08T02:32:28.016Z,75.71
2023-06-08T02:33:09.189Z,75.94
2023-06-08T02:33:49.929Z,76.16
2023-06-08T02:34:30.375Z,76.46
2023-06-08T02:35:13.084Z,76.30
2023-06-08T02:35:53.101Z,76.50
2023-06-08T02:36:38.955Z,76.54
2023-06-08T02:37:19.024Z,76.78
2023-06-08T02:37:59.936Z,76.19
2023-06-08T02:38:40.078Z,76.85
2023-06-08T02:39:22.940Z,76.96
2023-06-08T02:40:04.798Z,76.57
2023-06-08T02:40:44.998Z,76.60
2023-06-08T02:41:25.066Z,76.50
2023-06-08T02:42:05.931Z,76.44
2023-06-08T02:42:46.134Z,76.76
2023-06-08T02:43:26.947Z,76.41
2023-06-08T02:44:07.154Z,76.47
2023-06-08T02:44:47.957Z,76.52
2023-06-08T02:45:28.029Z,76.41
2023-06-08T02:46:09.022Z,76.65
2023-06-08T02:46:50.185Z,76.13
2023-06-08T02:47:29.981Z,76.35
2023-06-08T02:48:10.040Z,75.91
2023-06-08T02:48:49.941Z,76.11
2023-06-08T02:49:30.030Z,75.82
2023-06-08T02:50:10.931Z,76.02
2023-06-08T02:50:51.100Z,76.20
2023-06-08T02:51:30.930Z,76.37
2023-06-08T02:52:12.073Z,76.18
2023-06-08T02:52:51.928Z,76.95
2023-06-08T02:53:32.022Z,76.63
2023-06-08T02:54:12.913Z,76.33
2023-06-08T02:54:53.008Z,76.23
2023-06-08T02:55:32.983Z,76.96
2023-06-08T02:56:13.872Z,76.68
2023-06-08T02:56:54.964Z,77.28
2023-06-08T02:57:35.297Z,77.11
2023-06-08T02:58:16.928Z,77.37
2023-06-08T02:58:57.849Z,77.47
2023-06-08T02:59:38.910Z,76.91
2023-06-08T03:00:21.388Z,77.29
2023-06-08T03:01:20.091Z,77.28
2023-06-08T03:02:09.052Z,77.34
2023-06-08T03:03:02.986Z,77.35
2023-06-08T03:03:58.989Z,77.29
2023-06-08T03:04:52.924Z,77.27
2023-06-08T03:05:46.894Z,77.48
2023-06-08T03:06:43.919Z,77.01
2023-06-08T03:07:35.314Z,77.52
2023-06-08T03:08:10.306Z,77.49
2023-06-08T03:09:01.908Z,77.24
2023-06-08T03:09:36.197Z,77.16
2023-06-08T03:10:22.937Z,77.29
2023-06-08T03:10:57.059Z,77.33
2023-06-08T03:11:43.917Z,77.41
2023-06-08T03:12:18.003Z,77.32
2023-06-08T03:12:57.918Z,77.62
2023-06-08T03:13:38.057Z,77.97
2023-06-08T03:14:18.877Z,77.66
2023-06-08T03:14:59.449Z,77.94
2023-06-08T03:15:40.902Z,78.04
2023-06-08T03:16:23.699Z,78.00
2023-06-08T03:17:10.925Z,78.04
2023-06-08T03:17:52.622Z,77.85
2023-06-08T03:18:32.933Z,78.60
2023-06-08T03:19:13.194Z,78.48
2023-06-08T03:19:53.979Z,77.96
2023-06-08T03:20:33.987Z,78.18
2023-06-08T03:21:20.020Z,78.94
2023-06-08T03:21:59.980Z,78.99
2023-06-08T03:22:41.913Z,78.75
2023-06-08T03:23:21.966Z,78.17
2023-06-08T03:24:03.989Z,78.24
2023-06-08T03:24:49.617Z,78.25
2023-06-08T03:25:30.871Z,78.02
2023-06-08T03:26:11.245Z,78.68
2023-06-08T03:26:51.896Z,78.35
2023-06-08T03:27:32.176Z,78.55
2023-06-08T03:28:12.888Z,78.83
2023-06-08T03:28:53.424Z,78.86
2023-06-08T03:29:34.918Z,78.91
2023-06-08T03:30:16.214Z,79.01
2023-06-08T03:30:55.893Z,78.58
2023-06-08T03:31:38.227Z,78.65
2023-06-08T03:32:19.951Z,78.35
2023-06-08T03:33:00.033Z,78.24
2023-06-08T03:33:39.891Z,78.20
2023-06-08T03:34:19.985Z,78.35
2023-06-08T03:34:59.913Z,78.12
2023-06-08T03:35:39.988Z,78.12
2023-06-08T03:36:20.904Z,78.28
2023-06-08T03:37:01.983Z,78.33
2023-06-08T03:37:42.882Z,78.03
2023-06-08T03:38:23.016Z,78.22
2023-06-08T03:39:02.915Z,78.11
2023-06-08T03:39:42.947Z,78.09
2023-06-08T03:40:23.914Z,78.57
2023-06-08T03:41:04.197Z,78.58
2023-06-08T03:41:44.884Z,79.14
2023-06-08T03:42:25.042Z,79.30
2023-06-08T03:43:04.898Z,79.70
2023-06-08T03:43:45.041Z,79.64
2023-06-08T03:44:25.930Z,79.93
2023-06-08T03:45:06.530Z,79.70
2023-06-08T03:45:46.928Z,79.70
2023-06-08T03:46:27.059Z,79.79
2023-06-08T03:47:07.892Z,80.11
2023-06-08T03:47:48.079Z,79.81
2023-06-08T03:48:28.906Z,80.08
2023-06-08T03:49:09.017Z,79.84
2023-06-08T03:49:48.883Z,79.80
2023-06-08T03:50:30.068Z,79.74
2023-06-08T03:51:09.899Z,80.10
2023-06-08T03:51:50.001Z,80.28
2023-06-08T03:52:30.889Z,79.86
2023-06-08T03:53:12.090Z,79.88
2023-06-08T03:53:51.953Z,80.30
2023-06-08T03:54:34.983Z,79.76
2023-06-08T03:55:15.897Z,80.14
2023-06-08T03:55:56.006Z,80.36
2023-06-08T03:56:38.911Z,81.05
2023-06-08T03:57:19.006Z,80.41
2023-06-08T03:57:59.889Z,80.46
2023-06-08T03:58:43.088Z,80.06
2023-06-08T03:59:22.861Z,80.50
2023-06-08T04:00:04.043Z,80.01
2023-06-08T04:00:44.897Z,80.16
2023-06-08T04:01:25.065Z,80.00
2023-06-08T04:02:04.993Z,79.93
2023-06-08T04:02:46.078Z,80.29
2023-06-08T04:03:27.944Z,79.94
2023-06-08T04:04:07.977Z,80.18
2023-06-08T04:04:51.941Z,80.31
2023-06-08T04:05:32.158Z,80.23
2023-06-08T04:06:16.875Z,80.22
2023-06-08T04:06:58.899Z,80.31
2023-06-08T04:07:39.942Z,80.50
2023-06-08T04:08:19.992Z,80.70
2023-06-08T04:09:00.915Z,81.14
2023-06-08T04:09:41.253Z,80.44
2023-06-08T04:10:21.891Z,80.49
2023-06-08T04:11:01.985Z,80.59
2023-06-08T04:11:41.824Z,80.45
2023-06-08T04:12:21.968Z,80.64
2023-06-08T04:13:02.851Z,80.42
2023-06-08T04:14:28.036Z,80.58
2023-06-08T04:15:08.485Z,80.43
2023-06-08T04:15:48.945Z,80.61
2023-06-08T04:16:30.061Z,81.12
2023-06-08T04:17:10.822Z,80.73
2023-06-08T04:17:51.834Z,80.93
2023-06-08T04:18:31.830Z,80.77
2023-06-08T04:19:12.062Z,80.62
2023-06-08T04:19:52.841Z,80.59
2023-06-08T04:20:34.026Z,80.41
2023-06-08T04:21:14.813Z,80.69
2023-06-08T04:21:58.177Z,80.88
2023-06-08T04:22:38.837Z,81.00
2023-06-08T04:23:19.436Z,80.56
2023-06-08T04:23:59.895Z,80.88
2023-06-08T04:24:41.968Z,80.75
2023-06-08T04:25:22.821Z,80.96
2023-06-08T04:26:02.943Z,80.67
2023-06-08T04:26:43.874Z,80.59
2023-06-08T04:27:25.355Z,80.81
2023-06-08T04:28:08.939Z,80.79
2023-06-08T04:28:50.101Z,80.75
2023-06-08T04:29:30.865Z,80.69
2023-06-08T04:30:12.267Z,80.71
2023-06-08T04:30:52.876Z,80.51
2023-06-08T04:31:33.062Z,80.33
2023-06-08T04:32:13.857Z,80.58
2023-06-08T04:32:54.030Z,80.30
2023-06-08T04:33:35.928Z,80.46
2023-06-08T04:34:16.983Z,80.50
2023-06-08T04:34:57.880Z,80.38
2023-06-08T04:35:39.129Z,80.29
2023-06-08T04:36:18.836Z,80.18
2023-06-08T04:36:58.970Z,80.22
2023-06-08T04:37:39.869Z,80.12
2023-06-08T04:38:21.911Z,80.03
2023-06-08T04:39:03.923Z,79.92
2023-06-08T04:39:43.972Z,80.21
2023-06-08T04:40:27.876Z,79.75
2023-06-08T04:41:09.049Z,80.32
2023-06-08T04:41:52.890Z,81.03
2023-06-08T04:42:35.802Z,80.25
2023-06-08T04:43:16.818Z,80.17
2023-06-08T04:44:02.938Z,80.14
2023-06-08T04:44:42.863Z,80.17
2023-06-08T04:45:24.526Z,80.27
2023-06-08T04:46:06.919Z,80.19
2023-06-08T04:46:49.136Z,80.14
2023-06-08T04:47:29.906Z,80.50
2023-06-08T04:48:24.825Z,80.17
2023-06-08T04:49:20.925Z,80.65
2023-06-08T04:50:17.833Z,80.49
2023-06-08T04:51:16.834Z,80.23
2023-06-08T04:52:17.871Z,80.15
2023-06-08T04:53:11.889Z,80.26
2023-06-08T04:54:06.823Z,79.97
2023-06-08T04:55:00.855Z,79.91
2023-06-08T04:55:54.894Z,80.26
2023-06-08T04:56:41.836Z,80.01
2023-06-08T04:57:16.531Z,80.53
2023-06-08T04:58:03.853Z,80.11
2023-06-08T04:58:39.093Z,80.26
2023-06-08T04:59:25.859Z,80.41
2023-06-08T05:00:00.475Z,80.23
2023-06-08T05:00:50.871Z,80.41
2023-06-08T05:01:25.489Z,80.23
2023-06-08T05:02:06.894Z,80.14
2023-06-08T05:02:47.037Z,80.31
2023-06-08T05:03:27.980Z,80.35
2023-06-08T05:04:09.036Z,80.56
2023-06-08T05:04:49.077Z,80.51
2023-06-08T05:05:30.115Z,81.28
2023-06-08T05:06:10.850Z,80.36
2023-06-08T05:06:51.177Z,81.31
2023-06-08T05:07:31.867Z,80.96
2023-06-08T05:08:11.894Z,81.18
2023-06-08T05:08:52.884Z,80.93
2023-06-08T05:09:32.882Z,81.31
2023-06-08T05:10:13.793Z,81.07
2023-06-08T05:10:53.885Z,81.75
2023-06-08T05:11:33.825Z,81.68
2023-06-08T05:12:14.919Z,81.26
2023-06-08T05:12:54.953Z,81.18
2023-06-08T05:13:34.893Z,81.59
2023-06-08T05:14:17.850Z,81.26
2023-06-08T05:14:57.888Z,81.86
2023-06-08T05:15:38.882Z,81.93
2023-06-08T05:16:18.911Z,81.84
2023-06-08T05:16:58.895Z,81.79
2023-06-08T05:17:38.911Z,81.52
2023-06-08T05:18:19.841Z,81.57
2023-06-08T05:18:59.900Z,81.86
2023-06-08T05:19:39.833Z,81.80
2023-06-08T05:20:20.198Z,81.68
2023-06-08T05:20:59.790Z,81.42
2023-06-08T05:21:41.561Z,81.14
2023-06-08T05:22:22.813Z,81.48
2023-06-08T05:23:02.904Z,81.18
2023-06-08T05:23:42.841Z,81.78
2023-06-08T05:24:22.963Z,81.56
2023-06-08T05:25:02.840Z,81.31
2023-06-08T05:25:42.925Z,80.90
2023-06-08T05:26:23.799Z,80.90
2023-06-08T05:27:03.888Z,81.14
2023-06-08T05:27:44.845Z,81.13
2023-06-08T05:28:24.886Z,80.62
2023-06-08T05:29:04.806Z,80.95
2023-06-08T05:29:44.933Z,80.53
2023-06-08T05:30:25.784Z,80.58
2023-06-08T05:31:06.063Z,80.33
2023-06-08T05:31:46.835Z,80.54
2023-06-08T05:32:27.916Z,80.70
2023-06-08T05:33:07.900Z,80.23
2023-06-08T05:33:47.918Z,80.08
2023-06-08T05:34:28.796Z,80.53
2023-06-08T05:35:10.947Z,80.20
2023-06-08T05:35:50.804Z,80.12
2023-06-08T05:36:30.932Z,80.33
2023-06-08T05:37:11.804Z,79.94
2023-06-08T05:37:51.963Z,80.14
2023-06-08T05:38:32.792Z,80.17
2023-06-08T05:39:13.009Z,80.29
2023-06-08T05:39:52.841Z,79.86
2023-06-08T05:40:46.803Z,79.59
2023-06-08T05:41:40.891Z,79.50
2023-06-08T05:42:34.787Z,79.15
2023-06-08T05:43:28.784Z,78.92
2023-06-08T05:44:22.806Z,78.58
2023-06-08T05:45:09.822Z,78.39
2023-06-08T05:45:45.227Z,78.02
2023-06-08T05:46:32.861Z,77.85
2023-06-08T05:47:06.959Z,78.02
2023-06-08T05:47:53.859Z,78.20
2023-06-08T05:48:27.887Z,78.18
2023-06-08T05:49:14.863Z,78.34
2023-06-08T05:49:48.874Z,77.65
2023-06-08T05:50:29.827Z,77.36
2023-06-08T05:51:09.985Z,77.24
2023-06-08T05:51:49.790Z,77.06
2023-06-08T05:52:29.857Z,77.17
2023-06-08T05:53:10.806Z,76.61
2023-06-08T05:53:50.944Z,76.94
2023-06-08T05:54:31.864Z,76.60
2023-06-08T05:55:13.382Z,76.49
2023-06-08T05:55:53.841Z,77.01
2023-06-08T05:56:34.229Z,76.51
2023-06-08T05:57:13.802Z,76.67
2023-06-08T05:57:53.877Z,76.82
2023-06-08T05:58:48.740Z,76.84
2023-06-08T05:59:29.879Z,76.12
2023-06-08T06:00:14.131Z,75.88
2023-06-08T06:01:01.841Z,75.87
2023-06-08T06:01:56.866Z,75.23
2023-06-08T06:02:50.837Z,75.43
2023-06-08T06:03:45.879Z,74.65
2023-06-08T06:04:39.996Z,75.38
2023-06-08T06:05:33.847Z,74.62
2023-06-08T06:06:21.800Z,74.51
2023-06-08T06:06:55.978Z,74.52
2023-06-08T06:07:43.765Z,74.16
2023-06-08T06:08:17.942Z,73.66
2023-06-08T06:09:04.928Z,74.05
2023-06-08T06:09:39.929Z,73.81
2023-06-08T06:10:26.840Z,73.42
2023-06-08T06:11:00.907Z,73.39
2023-06-08T06:11:40.828Z,73.60
2023-06-08T06:12:23.097Z,73.62
2023-06-08T06:13:03.921Z,73.58
2023-06-08T06:13:44.796Z,73.58
2023-06-08T06:14:24.869Z,73.48
2023-06-08T06:15:19.752Z,73.61
2023-06-08T06:16:15.864Z,73.10
2023-06-08T06:17:07.310Z,72.77
2023-06-08T06:17:42.077Z,72.45
2023-06-08T06:18:30.940Z,73.20
2023-06-08T06:19:05.999Z,72.72
2023-06-08T06:19:52.795Z,72.73
2023-06-08T06:20:30.785Z,72.57
2023-06-08T06:21:18.073Z,72.61
2023-06-08T06:21:51.910Z,72.05
2023-06-08T06:22:32.888Z,72.12
2023-06-08T06:23:14.067Z,72.06
2023-06-08T06:23:55.086Z,72.79
2023-06-08T06:24:35.885Z,72.92
2023-06-08T06:25:23.859Z,72.87
2023-06-08T06:25:57.870Z,71.95
2023-06-08T06:26:51.850Z,72.17
2023-06-08T06:27:48.699Z,71.58
2023-06-08T06:28:42.758Z,71.53
2023-06-08T06:29:36.838Z,71.51
2023-06-08T06:30:31.832Z,71.61
2023-06-08T06:31:25.791Z,71.36
2023-06-08T06:32:20.965Z,71.69
2023-06-08T06:33:07.944Z,71.05
2023-06-08T06:33:43.883Z,71.03
2023-06-08T06:34:31.026Z,70.58
2023-06-08T06:35:04.894Z,70.25
2023-06-08T06:35:51.880Z,69.83
2023-06-08T06:36:27.870Z,69.33
2023-06-08T06:37:14.859Z,69.51
2023-06-08T06:37:48.951Z,69.37
2023-06-08T06:38:30.023Z,69.30
2023-06-08T06:39:10.940Z,69.80
2023-06-08T06:40:04.039Z,69.50
2023-06-08T06:40:48.613Z,68.91
2023-06-08T06:41:29.809Z,69.39
2023-06-08T06:42:10.863Z,68.71
2023-06-08T06:42:50.822Z,68.51
2023-06-08T06:43:37.948Z,68.28
2023-06-08T06:44:32.930Z,68.54
2023-06-08T06:45:29.870Z,68.06
2023-06-08T06:46:26.936Z,68.12
2023-06-08T06:47:20.841Z,67.77
2023-06-08T06:48:17.023Z,67.88
2023-06-08T06:48:57.824Z,67.41
2023-06-08T06:49:37.963Z,67.59
2023-06-08T06:50:18.819Z,67.17
2023-06-08T06:50:59.050Z,66.90
2023-06-08T06:51:40.985Z,66.82
2023-06-08T06:52:21.033Z,66.41
2023-06-08T06:53:01.866Z,66.03
2023-06-08T06:53:43.129Z,65.59
2023-06-08T06:54:24.002Z,65.57
2023-06-08T06:55:04.943Z,66.06
2023-06-08T06:55:45.814Z,65.74
2023-06-08T06:56:31.991Z,65.93
2023-06-08T06:57:15.960Z,65.91
2023-06-08T06:57:55.986Z,66.14
2023-06-08T06:58:40.387Z,65.83
2023-06-08T06:59:33.458Z,66.30
2023-06-08T07:00:52.866Z,66.29
2023-06-08T07:01:46.857Z,66.34
2023-06-08T07:02:40.796Z,66.23
2023-06-08T07:03:35.868Z,65.71
2023-06-08T07:05:42.826Z,65.65
2023-06-08T07:06:38.803Z,65.38
2023-06-08T07:07:33.697Z,65.51
2023-06-08T07:08:27.732Z,65.37
2023-06-08T07:09:21.711Z,65.23
2023-06-08T07:10:02.948Z,64.99
2023-06-08T07:11:14.807Z,65.36
2023-06-08T07:12:09.960Z,65.21
2023-06-08T07:12:53.800Z,65.60
2023-06-08T07:13:33.687Z,65.17
2023-06-08T07:14:13.899Z,64.81
2023-06-08T07:14:53.710Z,65.24
2023-06-08T07:15:34.798Z,64.71
2023-06-08T07:16:08.919Z,65.29
2023-06-08T07:16:56.924Z,64.44
2023-06-08T07:17:31.054Z,65.42
2023-06-08T07:18:18.707Z,65.19
2023-06-08T07:18:53.075Z,64.28
2023-06-08T07:19:40.763Z,64.45
2023-06-08T07:20:15.933Z,64.32
2023-06-08T07:20:57.779Z,63.72
2023-06-08T07:21:48.125Z,63.79
2023-06-08T07:22:53.923Z,64.08
2023-06-08T07:24:15.156Z,63.73
2023-06-08T07:25:04.912Z,63.44
2023-06-08T07:26:15.239Z,63.50
2023-06-08T07:26:41.769Z,62.88
2023-06-08T07:27:22.075Z,62.47
2023-06-08T07:28:05.801Z,61.37
2023-06-08T07:28:47.390Z,62.25
2023-06-08T07:29:27.712Z,61.13
2023-06-08T07:30:08.017Z,61.57
2023-06-08T07:30:49.725Z,61.58
2023-06-08T07:31:29.916Z,61.57
2023-06-08T07:32:10.745Z,61.53
2023-06-08T07:32:50.888Z,62.27
2023-06-08T07:33:30.679Z,61.88
2023-06-08T07:34:10.967Z,61.59
2023-06-08T07:34:51.691Z,61.80
2023-06-08T07:35:31.851Z,61.68
2023-06-08T07:36:12.701Z,62.36
2023-06-08T07:36:52.854Z,62.25
2023-06-08T07:37:35.725Z,62.10
2023-06-08T07:38:16.363Z,61.51
2023-06-08T07:39:02.701Z,61.10
2023-06-08T07:39:42.999Z,61.47
2023-06-08T07:40:25.776Z,61.17
2023-06-08T07:41:05.786Z,60.60
2023-06-08T07:41:46.751Z,59.90
2023-06-08T07:42:26.894Z,60.16
2023-06-08T07:43:07.740Z,60.04
2023-06-08T07:43:47.884Z,59.78
2023-06-08T07:44:27.720Z,60.47
2023-06-08T07:45:08.777Z,60.47
2023-06-08T07:45:49.743Z,59.97
2023-06-08T07:46:32.029Z,59.27
2023-06-08T07:47:12.768Z,59.49
2023-06-08T07:47:52.905Z,58.96
2023-06-08T07:48:32.736Z,58.89
2023-06-08T07:49:12.932Z,58.55
2023-06-08T07:49:53.833Z,58.70
2023-06-08T07:50:33.813Z,58.38
2023-06-08T07:51:14.730Z,58.43
2023-06-08T07:51:55.392Z,58.67
2023-06-08T07:52:35.699Z,58.14
2023-06-08T07:53:17.060Z,58.00
2023-06-08T07:53:57.764Z,58.58
2023-06-08T07:54:51.757Z,58.57
2023-06-08T07:55:45.761Z,58.65
2023-06-08T07:56:39.717Z,59.02
2023-06-08T07:57:33.711Z,58.94
2023-06-08T07:58:27.751Z,58.76
2023-06-08T07:59:14.695Z,58.52
2023-06-08T07:59:48.797Z,58.99
2023-06-08T08:00:38.656Z,58.88
2023-06-08T08:01:12.796Z,59.04
2023-06-08T08:01:59.771Z,59.41
2023-06-08T08:02:34.008Z,59.22
2023-06-08T08:03:20.886Z,59.38
2023-06-08T08:03:56.494Z,59.52
2023-06-08T08:04:36.906Z,58.76
2023-06-08T08:05:16.818Z,59.38
2023-06-08T08:05:57.728Z,59.62
2023-06-08T08:06:38.541Z,59.14
2023-06-08T08:07:19.692Z,58.57
2023-06-08T08:07:59.946Z,58.58
2023-06-08T08:08:40.678Z,58.19
2023-06-08T08:09:20.950Z,58.43
2023-06-08T08:10:01.763Z,57.34
2023-06-08T08:10:41.738Z,57.24
2023-06-08T08:11:22.706Z,56.78
2023-06-08T08:12:02.799Z,56.14
2023-06-08T08:12:45.703Z,56.15
2023-06-08T08:13:25.760Z,56.43
2023-06-08T08:14:05.669Z,55.40
2023-06-08T08:14:45.822Z,57.03
2023-06-08T08:15:26.896Z,56.25
2023-06-08T08:16:06.747Z,56.10
2023-06-08T08:16:47.864Z,56.55
2023-06-08T08:17:27.860Z,55.91
2023-06-08T08:18:08.733Z,55.88
2023-06-08T08:18:48.755Z,55.70
2023-06-08T08:19:29.725Z,55.47
2023-06-08T08:20:10.730Z,55.45
2023-06-08T08:20:50.696Z,54.92
2023-06-08T08:21:30.744Z,55.09
2023-06-08T08:22:13.919Z,55.07
2023-06-08T08:22:56.209Z,54.40
2023-06-08T08:23:37.719Z,54.68
2023-06-08T08:24:18.020Z,54.20
2023-06-08T08:24:57.875Z,53.97
2023-06-08T08:25:37.760Z,54.60
2023-06-08T08:26:17.735Z,54.30
2023-06-08T08:27:02.725Z,53.85
2023-06-08T08:27:43.709Z,54.00
2023-06-08T08:28:23.777Z,54.12
2023-06-08T08:29:04.675Z,53.66
2023-06-08T08:29:44.985Z,54.00
2023-06-08T08:30:25.770Z,53.57
2023-06-08T08:31:05.849Z,53.58
2023-06-08T08:31:46.681Z,53.36
2023-06-08T08:32:26.824Z,53.18
2023-06-08T08:33:08.720Z,53.54
2023-06-08T08:33:50.935Z,53.52
2023-06-08T08:34:30.676Z,53.69
2023-06-08T08:35:11.890Z,53.42
2023-06-08T08:35:52.700Z,53.61
2023-06-08T08:36:32.890Z,53.63
2023-06-08T08:37:15.677Z,53.64
2023-06-08T08:37:55.945Z,53.62
2023-06-08T08:38:39.653Z,53.47
2023-06-08T08:39:19.727Z,53.78
2023-06-08T08:40:00.672Z,53.40
2023-06-08T08:40:40.839Z,53.88
2023-06-08T08:41:23.706Z,53.82
2023-06-08T08:42:09.831Z,53.16
2023-06-08T08:42:52.685Z,53.45
2023-06-08T08:43:44.767Z,53.49
2023-06-08T08:44:26.769Z,53.75
2023-06-08T08:45:06.734Z,53.00
2023-06-08T08:45:49.632Z,53.29
2023-06-08T08:46:35.993Z,53.63
2023-06-08T08:47:17.704Z,53.55
2023-06-08T08:48:08.745Z,53.29
2023-06-08T08:49:07.659Z,52.90
2023-06-08T08:50:17.793Z,53.05
2023-06-08T08:51:13.686Z,52.36
2023-06-08T08:52:07.650Z,52.65
2023-06-08T08:53:09.749Z,52.77
2023-06-08T08:54:04.674Z,52.41
2023-06-08T08:55:03.661Z,53.10
2023-06-08T08:56:00.839Z,52.66
2023-06-08T08:56:55.656Z,52.11
2023-06-08T08:57:49.651Z,51.98
2023-06-08T08:58:30.683Z,51.53
2023-06-08T08:59:13.730Z,51.86
2023-06-08T08:59:54.660Z,51.92
2023-06-08T09:00:34.764Z,52.08
2023-06-08T09:01:18.677Z,51.38
2023-06-08T09:01:58.977Z,51.57
2023-06-08T09:02:42.675Z,51.69
2023-06-08T09:03:22.789Z,51.77
2023-06-08T09:04:02.691Z,51.40
2023-06-08T09:04:43.791Z,51.44
2023-06-08T09:05:25.701Z,51.28
2023-06-08T09:06:06.722Z,50.49
2023-06-08T09:06:57.738Z,50.64
2023-06-08T09:07:39.824Z,50.35
2023-06-08T09:08:20.734Z,50.13
2023-06-08T09:09:00.851Z,49.69
2023-06-08T09:09:40.622Z,49.49
2023-06-08T09:10:28.847Z,49.20
2023-06-08T09:11:11.613Z,49.36
2023-06-08T09:12:15.136Z,50.10
2023-06-08T09:13:02.684Z,49.48
2023-06-08T09:13:46.739Z,49.43
2023-06-08T09:14:31.724Z,49.39
2023-06-08T09:15:12.680Z,49.48
2023-06-08T09:15:47.708Z,49.15
2023-06-08T09:16:50.700Z,50.00
2023-06-08T09:17:39.741Z,49.64
2023-06-08T09:18:26.647Z,49.83
2023-06-08T09:19:13.735Z,49.39
2023-06-08T09:20:01.765Z,50.08
2023-06-08T09:20:47.786Z,49.38
2023-06-08T09:21:42.653Z,49.25
2023-06-08T09:22:44.650Z,48.92
2023-06-08T09:23:38.711Z,49.17
2023-06-08T09:24:33.658Z,49.16
2023-06-08T09:25:27.636Z,49.02
2023-06-08T09:26:08.698Z,49.02
2023-06-08T09:27:11.241Z,48.48
2023-06-08T09:27:53.759Z,48.86
2023-06-08T09:28:35.571Z,48.97
2023-06-08T09:29:42.697Z,49.05
2023-06-08T09:30:44.140Z,48.96